createdAt,value
2022-10-25T00:00:06.594Z,999.1
2022-10-25T00:01:23.943Z,999.1
2022-10-25T00:02:40.555Z,999.1
2022-10-25T00:03:57.453Z,999.1
2022-10-25T00:05:14.475Z,999.1
2022-10-25T00:06:31.452Z,999
2022-10-25T00:07:49.698Z,999
2022-10-25T00:09:06.468Z,999
2022-10-25T00:10:25.550Z,999
2022-10-25T00:11:41.518Z,999
2022-10-25T00:12:58.528Z,999
2022-10-25T00:14:15.482Z,999.1
2022-10-25T00:15:32.503Z,999.1
2022-10-25T00:16:49.508Z,999.1
2022-10-25T00:18:06.489Z,999.1
2022-10-25T00:19:23.504Z,999.1
2022-10-25T00:20:40.483Z,999.1
2022-10-25T00:21:58.059Z,999.1
2022-10-25T00:23:15.484Z,999.2
2022-10-25T00:24:33.319Z,999.2
2022-10-25T00:25:50.545Z,999.1
2022-10-25T00:27:07.521Z,999.1
2022-10-25T00:28:24.498Z,999.2
2022-10-25T00:29:41.491Z,999.2
2022-10-25T00:30:58.888Z,999.2
2022-10-25T00:32:15.499Z,999.1
2022-10-25T00:33:32.509Z,999.1
2022-10-25T00:34:49.504Z,999.1
2022-10-25T00:36:06.906Z,999.1
2022-10-25T00:37:24.583Z,999.1
2022-10-25T00:38:41.524Z,999.1
2022-10-25T00:39:58.530Z,999.1
2022-10-25T00:41:15.523Z,999.1
2022-10-25T00:42:32.530Z,999.1
2022-10-25T00:43:49.504Z,999.1
2022-10-25T00:45:06.552Z,999
2022-10-25T00:46:23.559Z,999
2022-10-25T00:47:40.613Z,999
2022-10-25T00:48:57.515Z,999.1
2022-10-25T00:50:14.519Z,999.1
2022-10-25T00:51:31.535Z,999.1
2022-10-25T00:52:48.557Z,999.1
2022-10-25T00:54:05.529Z,999.1
2022-10-25T00:55:22.542Z,999.1
2022-10-25T00:56:39.646Z,999.1
2022-10-25T00:57:56.625Z,999.1
2022-10-25T00:59:13.559Z,999.1
2022-10-25T01:00:30.556Z,999.1
2022-10-25T01:01:47.678Z,999.1
2022-10-25T01:03:04.575Z,999.1
2022-10-25T01:04:21.566Z,999.1
2022-10-25T01:05:38.584Z,999.1
2022-10-25T01:06:55.596Z,999
2022-10-25T01:08:12.952Z,999
2022-10-25T01:09:29.552Z,999
2022-10-25T01:10:46.947Z,999
2022-10-25T01:12:03.926Z,999
2022-10-25T01:13:20.587Z,999
2022-10-25T01:14:37.565Z,999
2022-10-25T01:15:54.619Z,999.1
2022-10-25T01:17:11.570Z,999.1
2022-10-25T01:18:28.585Z,999.1
2022-10-25T01:19:45.576Z,999.1
2022-10-25T01:21:02.655Z,999
2022-10-25T01:22:19.570Z,999
2022-10-25T01:23:36.574Z,999
2022-10-25T01:24:53.563Z,999
2022-10-25T01:26:10.611Z,998.9
2022-10-25T01:27:27.587Z,998.9
2022-10-25T01:28:44.622Z,999
2022-10-25T01:30:01.706Z,999
2022-10-25T01:31:18.668Z,998.9
2022-10-25T01:32:35.589Z,998.9
2022-10-25T01:33:52.600Z,998.9
2022-10-25T01:35:09.598Z,998.9
2022-10-25T01:36:26.651Z,998.9
2022-10-25T01:37:43.632Z,998.9
2022-10-25T01:39:00.611Z,998.9
2022-10-25T01:40:17.605Z,998.9
2022-10-25T01:41:35.687Z,998.9
2022-10-25T01:42:52.639Z,998.9
2022-10-25T01:44:09.714Z,998.9
2022-10-25T01:45:26.616Z,998.9
2022-10-25T01:46:43.620Z,998.9
2022-10-25T01:48:00.644Z,999
2022-10-25T01:49:17.631Z,999
2022-10-25T01:50:34.622Z,999
2022-10-25T01:51:51.954Z,999
2022-10-25T01:53:08.755Z,999
2022-10-25T01:54:25.683Z,999
2022-10-25T01:55:42.641Z,999
2022-10-25T01:56:59.669Z,999
2022-10-25T01:58:16.682Z,999
2022-10-25T01:59:33.969Z,999
2022-10-25T02:00:50.682Z,999.1
2022-10-25T02:02:07.690Z,999.1
2022-10-25T02:03:24.638Z,999.1
2022-10-25T02:04:41.667Z,999.1
2022-10-25T02:05:59.694Z,999.1
2022-10-25T02:07:16.673Z,999
2022-10-25T02:08:33.653Z,999.1
2022-10-25T02:09:50.665Z,999
2022-10-25T02:11:07.653Z,999
2022-10-25T02:12:24.681Z,999
2022-10-25T02:13:41.636Z,999
2022-10-25T02:14:58.699Z,999
2022-10-25T02:16:15.660Z,999
2022-10-25T02:17:32.660Z,999
2022-10-25T02:18:49.657Z,999.1
2022-10-25T02:20:06.794Z,999.1
2022-10-25T02:21:23.694Z,999.1
2022-10-25T02:22:40.674Z,999.1
2022-10-25T02:23:57.672Z,999.1
2022-10-25T02:25:14.787Z,999.1
2022-10-25T02:26:31.688Z,999.1
2022-10-25T02:27:48.928Z,999.1
2022-10-25T02:29:05.700Z,999.1
2022-10-25T02:30:22.739Z,999
2022-10-25T02:31:40.754Z,999
2022-10-25T02:32:57.687Z,999
2022-10-25T02:34:14.692Z,999.1
2022-10-25T02:35:31.723Z,999
2022-10-25T02:36:48.694Z,999
2022-10-25T02:38:05.692Z,999
2022-10-25T02:39:24.515Z,999
2022-10-25T02:40:39.838Z,999
2022-10-25T02:41:56.706Z,999
2022-10-25T02:43:13.691Z,999
2022-10-25T02:44:30.701Z,999
2022-10-25T02:45:47.938Z,999
2022-10-25T02:47:04.723Z,999
2022-10-25T02:48:21.690Z,999.1
2022-10-25T02:49:38.724Z,999.1
2022-10-25T02:50:55.714Z,999.1
2022-10-25T02:52:12.759Z,999.1
2022-10-25T02:53:29.700Z,999.1
2022-10-25T02:54:46.741Z,999.1
2022-10-25T02:56:03.731Z,999.1
2022-10-25T02:57:21.024Z,999.1
2022-10-25T02:58:37.709Z,999.1
2022-10-25T02:59:54.743Z,999.1
2022-10-25T03:01:11.873Z,999.1
2022-10-25T03:02:28.727Z,999.1
2022-10-25T03:03:45.724Z,999.1
2022-10-25T03:05:02.762Z,999.1
2022-10-25T03:06:19.731Z,999.2
2022-10-25T03:07:36.724Z,999.1
2022-10-25T03:08:53.743Z,999.1
2022-10-25T03:10:10.773Z,999.2
2022-10-25T03:11:27.767Z,999.1
2022-10-25T03:12:44.933Z,999.1
2022-10-25T03:14:01.790Z,999.1
2022-10-25T03:15:18.770Z,999.1
2022-10-25T03:16:35.820Z,999.1
2022-10-25T03:17:52.751Z,999.1
2022-10-25T03:19:09.758Z,999.2
2022-10-25T03:20:26.790Z,999.2
2022-10-25T03:21:43.761Z,999.2
2022-10-25T03:23:00.780Z,999.2
2022-10-25T03:24:17.770Z,999.2
2022-10-25T03:25:34.787Z,999.1
2022-10-25T03:26:51.774Z,999.2
2022-10-25T03:28:08.868Z,999.1
2022-10-25T03:29:25.776Z,999.1
2022-10-25T03:30:42.810Z,999.1
2022-10-25T03:31:59.799Z,999.1
2022-10-25T03:33:16.847Z,999.1
2022-10-25T03:34:33.766Z,999.1
2022-10-25T03:35:50.775Z,999.1
2022-10-25T03:37:07.784Z,999.1
2022-10-25T03:38:24.842Z,999.1
2022-10-25T03:39:41.786Z,999.1
2022-10-25T03:40:58.788Z,999
2022-10-25T03:42:15.800Z,999
2022-10-25T03:43:32.846Z,999.1
2022-10-25T03:44:49.824Z,999.1
2022-10-25T03:46:06.842Z,999.1
2022-10-25T03:47:23.836Z,999.1
2022-10-25T03:48:40.793Z,999
2022-10-25T03:49:57.857Z,999
2022-10-25T03:51:14.800Z,999
2022-10-25T03:52:31.799Z,999
2022-10-25T03:53:48.792Z,999
2022-10-25T03:55:05.838Z,999
2022-10-25T03:56:22.858Z,999
2022-10-25T03:57:39.818Z,999
2022-10-25T03:58:56.808Z,999
2022-10-25T04:00:13.853Z,999
2022-10-25T04:01:30.993Z,999
2022-10-25T04:02:47.882Z,998.9
2022-10-25T04:04:04.814Z,998.9
2022-10-25T04:05:21.814Z,999
2022-10-25T04:06:38.845Z,999
2022-10-25T04:07:55.822Z,999
2022-10-25T04:09:12.821Z,999
2022-10-25T04:10:29.863Z,999
2022-10-25T04:11:46.855Z,999.1
2022-10-25T04:13:03.851Z,999.1
2022-10-25T04:14:20.829Z,999.1
2022-10-25T04:15:37.919Z,999.1
2022-10-25T04:16:54.840Z,999.1
2022-10-25T04:18:11.865Z,999.1
2022-10-25T04:19:28.843Z,999.1
2022-10-25T04:20:45.880Z,999.1
2022-10-25T04:22:02.917Z,999.1
2022-10-25T04:23:19.878Z,999.2
2022-10-25T04:24:36.851Z,999.1
2022-10-25T04:25:54.299Z,999.1
2022-10-25T04:27:11.852Z,999.1
2022-10-25T04:28:28.852Z,999.1
2022-10-25T04:29:45.873Z,999.1
2022-10-25T04:31:02.932Z,999.1
2022-10-25T04:33:36.911Z,999.1
2022-10-25T04:34:53.868Z,999.1
2022-10-25T04:36:10.899Z,999.1
2022-10-25T04:37:27.918Z,999.1
2022-10-25T04:38:44.878Z,999.1
2022-10-25T04:40:01.963Z,999.1
2022-10-25T04:41:18.898Z,999.1
2022-10-25T04:42:35.868Z,999.1
2022-10-25T04:43:52.868Z,999.1
2022-10-25T04:45:09.890Z,999.1
2022-10-25T04:46:26.888Z,999.1
2022-10-25T04:47:43.883Z,999.1
2022-10-25T04:49:00.966Z,999.1
2022-10-25T04:50:17.888Z,999.1
2022-10-25T04:51:34.943Z,999.1
2022-10-25T04:52:51.905Z,999.2
2022-10-25T04:54:08.897Z,999.1
2022-10-25T04:55:25.884Z,999.2
2022-10-25T04:56:42.961Z,999.2
2022-10-25T04:57:59.911Z,999.1
2022-10-25T04:59:16.906Z,999.1
2022-10-25T05:00:33.902Z,999.1
2022-10-25T05:03:09.503Z,999.2
2022-10-25T05:04:24.951Z,999.2
2022-10-25T05:05:42.031Z,999.2
2022-10-25T05:06:58.908Z,999.2
2022-10-25T05:08:15.938Z,999.2
2022-10-25T05:09:32.933Z,999.2
2022-10-25T05:10:49.946Z,999.2
2022-10-25T05:12:06.950Z,999.3
2022-10-25T05:13:23.991Z,999.3
2022-10-25T05:14:40.914Z,999.3
2022-10-25T05:15:57.931Z,999.3
2022-10-25T05:17:14.924Z,999.3
2022-10-25T05:18:31.959Z,999.3
2022-10-25T05:19:48.949Z,999.3
2022-10-25T05:21:05.953Z,999.3
2022-10-25T05:22:22.947Z,999.3
2022-10-25T05:23:39.945Z,999.3
2022-10-25T05:24:56.978Z,999.4
2022-10-25T05:26:13.965Z,999.4
2022-10-25T05:27:31.020Z,999.3
2022-10-25T05:28:47.930Z,999.4
2022-10-25T05:30:05.189Z,999.3
2022-10-25T05:31:21.973Z,999.3
2022-10-25T05:32:39.017Z,999.4
2022-10-25T05:33:55.946Z,999.4
2022-10-25T05:35:12.997Z,999.4
2022-10-25T05:36:30.130Z,999.4
2022-10-25T05:37:46.980Z,999.4
2022-10-25T05:39:04.040Z,999.4
2022-10-25T05:40:21.253Z,999.4
2022-10-25T05:41:38.022Z,999.4
2022-10-25T05:42:55.001Z,999.4
2022-10-25T05:44:11.947Z,999.5
2022-10-25T05:45:28.995Z,999.4
2022-10-25T05:46:45.961Z,999.4
2022-10-25T05:48:03.035Z,999.5
2022-10-25T05:49:19.971Z,999.5
2022-10-25T05:50:38.028Z,999.5
2022-10-25T05:51:54.974Z,999.5
2022-10-25T05:53:12.011Z,999.5
2022-10-25T05:54:28.983Z,999.5
2022-10-25T05:55:45.976Z,999.5
2022-10-25T05:57:02.989Z,999.5
2022-10-25T05:58:20.162Z,999.5
2022-10-25T05:59:37.039Z,999.5
2022-10-25T06:00:54.030Z,999.6
2022-10-25T06:02:11.208Z,999.6
2022-10-25T06:03:28.026Z,999.6
2022-10-25T06:04:47.868Z,999.5
2022-10-25T06:06:02.263Z,999.5
2022-10-25T06:07:19.023Z,999.6
2022-10-25T06:08:36.006Z,999.6
2022-10-25T06:09:52.999Z,999.7
2022-10-25T06:11:10.015Z,999.7
2022-10-25T06:12:27.061Z,999.7
2022-10-25T06:13:44.004Z,999.8
2022-10-25T06:15:01.007Z,999.8
2022-10-25T06:16:18.033Z,999.8
2022-10-25T06:17:35.052Z,999.7
2022-10-25T06:18:52.012Z,999.7
2022-10-25T06:20:09.021Z,999.6
2022-10-25T06:21:26.051Z,999.6
2022-10-25T06:22:43.054Z,999.7
2022-10-25T06:24:00.033Z,999.7
2022-10-25T06:25:17.135Z,999.5
2022-10-25T06:26:34.021Z,999.7
2022-10-25T06:27:51.117Z,999.8
2022-10-25T06:29:08.060Z,1000
2022-10-25T06:30:25.089Z,1000
2022-10-25T06:31:42.044Z,1000
2022-10-25T06:32:59.882Z,1000
2022-10-25T06:34:16.100Z,1000
2022-10-25T06:35:33.047Z,1000
2022-10-25T06:36:50.108Z,1000.1
2022-10-25T06:38:07.050Z,1000.1
2022-10-25T06:39:24.115Z,1000.1
2022-10-25T06:40:41.047Z,1000.1
2022-10-25T06:41:58.084Z,1000.1
2022-10-25T06:43:15.052Z,1000
2022-10-25T06:44:32.132Z,999.7
2022-10-25T06:45:49.078Z,999.6
2022-10-25T06:47:16.781Z,999.6
2022-10-25T06:48:23.059Z,999.6
2022-10-25T06:49:40.118Z,999.6
2022-10-25T06:50:57.051Z,999.6
2022-10-25T06:52:14.169Z,999.6
2022-10-25T06:53:31.124Z,999.6
2022-10-25T06:54:48.072Z,999.6
2022-10-25T06:56:05.505Z,999.6
2022-10-25T06:57:22.075Z,999.6
2022-10-25T06:58:39.112Z,999.6
2022-10-25T06:59:56.114Z,999.6
2022-10-25T07:01:13.312Z,999.6
2022-10-25T07:02:30.236Z,999.6
2022-10-25T07:03:47.153Z,999.7
2022-10-25T07:05:04.268Z,999.7
2022-10-25T07:06:21.275Z,999.7
2022-10-25T07:07:38.118Z,999.7
2022-10-25T07:08:55.079Z,999.7
2022-10-25T07:10:12.263Z,999.7
2022-10-25T07:11:29.156Z,999.7
2022-10-25T07:12:46.939Z,999.7
2022-10-25T07:14:04.116Z,999.7
2022-10-25T07:15:21.173Z,999.6
2022-10-25T07:16:38.169Z,999.6
2022-10-25T07:17:55.122Z,999.6
2022-10-25T07:19:12.123Z,999.6
2022-10-25T07:20:29.103Z,999.6
2022-10-25T07:21:46.158Z,999.7
2022-10-25T07:23:04.283Z,1000
2022-10-25T07:24:20.122Z,1000.1
2022-10-25T07:25:37.134Z,1000.2
2022-10-25T07:26:54.205Z,1000.4
2022-10-25T07:28:11.150Z,1000.4
2022-10-25T07:29:28.154Z,1000.5
2022-10-25T07:30:45.167Z,1000.5
2022-10-25T07:32:02.248Z,1000.5
2022-10-25T07:33:19.241Z,1000.5
2022-10-25T07:34:36.291Z,1000.5
2022-10-25T07:36:05.667Z,1000.6
2022-10-25T07:37:10.208Z,1000.5
2022-10-25T07:38:27.958Z,1000.5
2022-10-25T07:39:44.169Z,1000.5
2022-10-25T07:41:01.180Z,1000.5
2022-10-25T07:42:18.213Z,1000.5
2022-10-25T07:43:35.188Z,1000.4
2022-10-25T07:44:52.144Z,1000.4
2022-10-25T07:46:09.161Z,1000.4
2022-10-25T07:47:26.225Z,1000.1
2022-10-25T07:48:43.170Z,1000
2022-10-25T07:50:00.187Z,1000.2
2022-10-25T07:51:17.161Z,1000.3
2022-10-25T07:52:34.184Z,1000.4
2022-10-25T07:53:52.052Z,1000.4
2022-10-25T07:55:09.194Z,1000.5
2022-10-25T07:56:27.070Z,1000.5
2022-10-25T07:57:44.342Z,1000.5
2022-10-25T07:59:01.197Z,1000.5
2022-10-25T08:00:18.201Z,1000.4
2022-10-25T08:01:35.237Z,1000.5
2022-10-25T08:02:52.284Z,1000.6
2022-10-25T08:04:09.188Z,1000.6
2022-10-25T08:05:26.198Z,1000.5
2022-10-25T08:06:43.259Z,1000.6
2022-10-25T08:08:00.242Z,1000.6
2022-10-25T08:09:33.570Z,1000.7
2022-10-25T08:10:34.296Z,1000.6
2022-10-25T08:11:51.248Z,1000.7
2022-10-25T08:13:08.235Z,1000.7
2022-10-25T08:14:25.204Z,1000.7
2022-10-25T08:15:42.241Z,1000.7
2022-10-25T08:16:59.234Z,1000.7
2022-10-25T08:18:16.211Z,1000.7
2022-10-25T08:19:33.328Z,1000.7
2022-10-25T08:21:02.096Z,1000.7
2022-10-25T08:22:09.018Z,1000.7
2022-10-25T08:23:26.341Z,1000.7
2022-10-25T08:24:43.341Z,1000.7
2022-10-25T08:26:00.258Z,1000.7
2022-10-25T08:27:17.265Z,1000.6
2022-10-25T08:28:34.260Z,1000.7
2022-10-25T08:29:52.490Z,1000.7
2022-10-25T08:31:09.234Z,1000.7
2022-10-25T08:32:27.197Z,1000.7
2022-10-25T08:33:46.138Z,1000.7
2022-10-25T08:35:04.485Z,1000.7
2022-10-25T08:36:21.879Z,1000.7
2022-10-25T08:37:38.240Z,1000.7
2022-10-25T08:38:55.550Z,1000.7
2022-10-25T08:40:12.917Z,1000.7
2022-10-25T08:41:30.275Z,1000.6
2022-10-25T08:42:47.265Z,1000.4
2022-10-25T08:44:04.284Z,1000.3
2022-10-25T08:45:21.298Z,1000.2
2022-10-25T08:46:38.320Z,1000.4
2022-10-25T08:47:55.312Z,1000.5
2022-10-25T08:49:13.524Z,1000.6
2022-10-25T08:50:30.782Z,1000.6
2022-10-25T08:51:47.325Z,1000.6
2022-10-25T08:53:04.297Z,1000.6
2022-10-25T08:54:21.731Z,1000.7
2022-10-25T08:55:44.527Z,1000.7
2022-10-25T08:57:14.527Z,1000.7
2022-10-25T08:58:13.341Z,1000.7
2022-10-25T08:59:30.290Z,1000.7
2022-10-25T09:00:47.266Z,1000.7
2022-10-25T09:02:04.452Z,1000.7
2022-10-25T09:03:21.313Z,1000.7
2022-10-25T09:04:39.276Z,1000.7
2022-10-25T09:05:56.367Z,1000.7
2022-10-25T09:07:14.171Z,1000.7
2022-10-25T09:08:31.367Z,1000.8
2022-10-25T09:09:48.322Z,1000.7
2022-10-25T09:11:05.385Z,1000.7
2022-10-25T09:12:22.343Z,1000.7
2022-10-25T09:13:39.389Z,1000.6
2022-10-25T09:14:56.840Z,1000.6
2022-10-25T09:16:14.345Z,1000.6
2022-10-25T09:17:31.329Z,1000.5
2022-10-25T09:18:48.341Z,1000.5
2022-10-25T09:20:05.403Z,1000.4
2022-10-25T09:21:23.424Z,1000.4
2022-10-25T09:22:40.307Z,1000.5
2022-10-25T09:23:57.886Z,1000.6
2022-10-25T09:25:14.669Z,1000.6
2022-10-25T09:26:32.340Z,1000.7
2022-10-25T09:27:49.817Z,1000.6
2022-10-25T09:29:07.610Z,1000.5
2022-10-25T09:30:24.450Z,1000.6
2022-10-25T09:31:42.108Z,1000.6
2022-10-25T09:32:59.353Z,1000.6
2022-10-25T09:34:16.395Z,1000.7
2022-10-25T09:35:33.346Z,1000.7
2022-10-25T09:36:50.849Z,1000.7
2022-10-25T09:38:08.928Z,1000.6
2022-10-25T09:39:25.831Z,1000.7
2022-10-25T09:40:47.500Z,1000.7
2022-10-25T09:41:59.473Z,1000.7
2022-10-25T09:43:16.548Z,1000.7
2022-10-25T09:44:33.764Z,1000.6
2022-10-25T09:45:51.574Z,1000.8
2022-10-25T09:47:09.407Z,1000.7
2022-10-25T09:48:26.364Z,1000.7
2022-10-25T09:49:44.365Z,1000.7
2022-10-25T09:51:01.408Z,1000.8
2022-10-25T09:52:18.426Z,1000.8
2022-10-25T09:53:35.375Z,1000.9
2022-10-25T09:54:52.672Z,1000.8
2022-10-25T09:56:09.418Z,1000.9
2022-10-25T09:57:26.425Z,1000.8
2022-10-25T09:58:43.367Z,1000.8
2022-10-25T10:00:00.395Z,1000.8
2022-10-25T10:01:17.542Z,1000.8
2022-10-25T10:02:34.648Z,1000.8
2022-10-25T10:03:53.138Z,1000.8
2022-10-25T10:05:08.417Z,1000.8
2022-10-25T10:06:25.410Z,1000.9
2022-10-25T10:07:42.981Z,1000.9
2022-10-25T10:09:00.656Z,1000.9
2022-10-25T10:10:17.768Z,1000.9
2022-10-25T10:11:37.277Z,1000.9
2022-10-25T10:12:54.564Z,1000.9
2022-10-25T10:14:13.408Z,1000.8
2022-10-25T10:15:35.302Z,1000.8
2022-10-25T10:16:54.365Z,1000.8
2022-10-25T10:18:11.413Z,1000.9
2022-10-25T10:19:28.474Z,1000.8
2022-10-25T10:20:45.460Z,1000.9
2022-10-25T10:22:02.495Z,1000.9
2022-10-25T10:23:20.445Z,1000.8
2022-10-25T10:24:39.366Z,1000.8
2022-10-25T10:25:56.530Z,1000.8
2022-10-25T10:27:13.452Z,1000.9
2022-10-25T10:28:30.499Z,1000.8
2022-10-25T10:29:49.430Z,1000.9
2022-10-25T10:31:07.792Z,1000.8
2022-10-25T10:32:25.646Z,1000.8
2022-10-25T10:33:46.343Z,1000.8
2022-10-25T10:35:06.293Z,1000.9
2022-10-25T10:36:25.196Z,1000.9
2022-10-25T10:37:42.585Z,1000.9
2022-10-25T10:39:00.347Z,1000.8
2022-10-25T10:40:18.640Z,1000.8
2022-10-25T10:41:35.508Z,1000.8
2022-10-25T10:42:53.732Z,1000.8
2022-10-25T10:44:09.643Z,1000.8
2022-10-25T10:45:26.493Z,1000.9
2022-10-25T10:46:43.451Z,1000.9
2022-10-25T10:48:00.456Z,1000.9
2022-10-25T10:49:17.587Z,1001
2022-10-25T10:50:34.500Z,1001
2022-10-25T10:51:51.499Z,1001.1
2022-10-25T10:53:08.643Z,1001.1
2022-10-25T10:54:25.514Z,1001.1
2022-10-25T10:55:42.877Z,1001.1
2022-10-25T10:56:59.481Z,1001.1
2022-10-25T10:58:16.516Z,1001.1
2022-10-25T10:59:33.548Z,1001.1
2022-10-25T11:00:50.519Z,1001.1
2022-10-25T11:02:07.600Z,1001.1
2022-10-25T11:03:24.489Z,1001.1
2022-10-25T11:04:41.621Z,1001.1
2022-10-25T11:05:58.505Z,1001.1
2022-10-25T11:07:15.488Z,1001.1
2022-10-25T11:08:32.514Z,1001.1
2022-10-25T11:09:49.560Z,1001.1
2022-10-25T11:11:06.591Z,1001.1
2022-10-25T11:12:23.542Z,1001.1
2022-10-25T11:13:40.513Z,1001.2
2022-10-25T11:14:57.757Z,1001.2
2022-10-25T11:16:14.620Z,1001.1
2022-10-25T11:17:31.612Z,1001.2
2022-10-25T11:18:48.621Z,1001.1
2022-10-25T11:20:05.679Z,1001.1
2022-10-25T11:21:22.568Z,1001
2022-10-25T11:22:39.769Z,1001.1
2022-10-25T11:23:56.575Z,1001.1
2022-10-25T11:25:13.592Z,1001.1
2022-10-25T11:26:30.583Z,1001.1
2022-10-25T11:27:47.880Z,1001.1
2022-10-25T11:29:04.674Z,1001.1
2022-10-25T11:30:21.770Z,1001.2
2022-10-25T11:31:39.666Z,1001.2
2022-10-25T11:32:56.584Z,1001.2
2022-10-25T11:34:13.786Z,1001.1
2022-10-25T11:35:30.633Z,1001
2022-10-25T11:36:47.618Z,1001
2022-10-25T11:38:04.644Z,1001.1
2022-10-25T11:39:21.607Z,1001.1
2022-10-25T11:40:38.526Z,1001.1
2022-10-25T11:41:55.610Z,1001.1
2022-10-25T11:43:12.695Z,1001.1
2022-10-25T11:44:29.564Z,1001.1
2022-10-25T11:45:46.728Z,1001
2022-10-25T11:47:03.763Z,1001
2022-10-25T11:48:20.557Z,1001
2022-10-25T11:49:37.625Z,1001
2022-10-25T11:50:54.654Z,1000.9
2022-10-25T11:52:11.697Z,1000.9
2022-10-25T11:53:28.629Z,1000.9
2022-10-25T11:54:45.608Z,1000.9
2022-10-25T11:56:02.695Z,1001
2022-10-25T11:57:19.681Z,1000.9
2022-10-25T11:58:36.603Z,1001
2022-10-25T11:59:53.589Z,1001
2022-10-25T12:01:10.893Z,1001
2022-10-25T12:02:27.750Z,1001
2022-10-25T12:03:44.950Z,1001
2022-10-25T12:05:01.591Z,1000.9
2022-10-25T12:06:18.614Z,1000.9
2022-10-25T12:07:35.661Z,1000.9
2022-10-25T12:08:52.636Z,1001
2022-10-25T12:10:09.689Z,1000.9
2022-10-25T12:11:26.597Z,1001
2022-10-25T12:12:44.544Z,1001
2022-10-25T12:14:01.598Z,1001
2022-10-25T12:15:19.440Z,1000.9
2022-10-25T12:16:36.880Z,1001
2022-10-25T12:17:54.088Z,1001
2022-10-25T12:19:11.768Z,1001
2022-10-25T12:20:29.469Z,1001
2022-10-25T12:21:46.679Z,1001.1
2022-10-25T12:23:03.664Z,1001
2022-10-25T12:24:20.652Z,1001.1
2022-10-25T12:25:37.615Z,1001.1
2022-10-25T12:26:54.706Z,1001
2022-10-25T12:28:11.702Z,1001
2022-10-25T12:29:29.216Z,1001.1
2022-10-25T12:30:45.751Z,1001.1
2022-10-25T12:32:02.973Z,1001.1
2022-10-25T12:33:19.721Z,1001.1
2022-10-25T12:34:36.646Z,1001.1
2022-10-25T12:35:53.643Z,1001.1
2022-10-25T12:37:10.649Z,1001.1
2022-10-25T12:38:27.760Z,1001.1
2022-10-25T12:39:44.642Z,1001.1
2022-10-25T12:41:01.680Z,1001.1
2022-10-25T12:42:18.663Z,1001
2022-10-25T12:43:35.684Z,1001.1
2022-10-25T12:44:52.638Z,1001.1
2022-10-25T12:46:10.153Z,1001.1
2022-10-25T12:47:26.791Z,1001
2022-10-25T12:48:43.665Z,1001.1
2022-10-25T12:50:00.706Z,1001.1
2022-10-25T12:51:18.172Z,1001.1
2022-10-25T12:52:34.693Z,1001.1
2022-10-25T12:53:51.664Z,1001.2
2022-10-25T12:55:09.328Z,1001.2
2022-10-25T12:56:26.743Z,1001.2
2022-10-25T12:57:47.421Z,1001.2
2022-10-25T12:59:00.653Z,1001.2
2022-10-25T13:00:17.720Z,1001.2
2022-10-25T13:01:34.911Z,1001.2
2022-10-25T13:02:51.795Z,1001.2
2022-10-25T13:04:08.714Z,1001.1
2022-10-25T13:05:25.705Z,1001.1
2022-10-25T13:06:42.759Z,1001.2
2022-10-25T13:07:59.709Z,1001.2
2022-10-25T13:09:16.675Z,1001.3
2022-10-25T13:10:33.679Z,1001.2
2022-10-25T13:11:51.116Z,1001.2
2022-10-25T13:13:07.699Z,1001.2
2022-10-25T13:14:24.737Z,1001.3
2022-10-25T13:15:41.740Z,1001.3
2022-10-25T13:16:58.740Z,1001.3
2022-10-25T13:18:18.789Z,1001.3
2022-10-25T13:20:02.609Z,1001.3
2022-10-25T13:20:49.895Z,1001.3
2022-10-25T13:22:06.717Z,1001.4
2022-10-25T13:23:24.219Z,1001.3
2022-10-25T13:24:41.820Z,1001.4
2022-10-25T13:27:15.733Z,1001.4
2022-10-25T13:28:35.963Z,1001.4
2022-10-25T13:29:49.771Z,1001.4
2022-10-25T13:31:06.830Z,1001.4
2022-10-25T13:32:23.772Z,1001.4
2022-10-25T13:33:40.845Z,1001.4
2022-10-25T13:34:57.879Z,1001.4
2022-10-25T13:36:14.758Z,1001.4
2022-10-25T13:37:31.791Z,1001.3
2022-10-25T13:38:49.786Z,1001.3
2022-10-25T13:40:06.858Z,1001.3
2022-10-25T13:41:24.847Z,1001.3
2022-10-25T13:42:41.891Z,1001.3
2022-10-25T13:43:58.953Z,1001.4
2022-10-25T13:45:15.758Z,1001.3
2022-10-25T13:46:32.842Z,1001.3
2022-10-25T13:47:49.768Z,1001.4
2022-10-25T13:49:06.905Z,1001.4
2022-10-25T13:50:23.745Z,1001.4
2022-10-25T13:51:40.743Z,1001.4
2022-10-25T13:53:00.165Z,1001.4
2022-10-25T13:54:14.808Z,1001.4
2022-10-25T13:55:31.749Z,1001.4
2022-10-25T13:56:48.749Z,1001.5
2022-10-25T13:58:05.831Z,1001.5
2022-10-25T13:59:22.774Z,1001.5
2022-10-25T14:00:39.994Z,1001.5
2022-10-25T14:01:57.018Z,1001.5
2022-10-25T14:03:13.774Z,1001.5
2022-10-25T14:04:30.830Z,1001.5
2022-10-25T14:05:48.413Z,1001.5
2022-10-25T14:07:05.834Z,1001.5
2022-10-25T14:08:22.892Z,1001.5
2022-10-25T14:09:39.788Z,1001.5
2022-10-25T14:10:57.141Z,1001.5
2022-10-25T14:12:15.571Z,1001.5
2022-10-25T14:13:30.784Z,1001.5
2022-10-25T14:14:47.863Z,1001.5
2022-10-25T14:16:04.807Z,1001.6
2022-10-25T14:17:21.780Z,1001.6
2022-10-25T14:18:38.798Z,1001.6
2022-10-25T14:19:55.902Z,1001.6
2022-10-25T14:21:12.799Z,1001.6
2022-10-25T14:22:31.799Z,1001.6
2022-10-25T14:23:47.074Z,1001.7
2022-10-25T14:25:03.815Z,1001.6
2022-10-25T14:26:20.814Z,1001.7
2022-10-25T14:27:37.938Z,1001.6
2022-10-25T14:28:54.862Z,1001.7
2022-10-25T14:30:11.991Z,1001.7
2022-10-25T14:31:28.878Z,1001.7
2022-10-25T14:32:46.116Z,1001.7
2022-10-25T14:34:03.091Z,1001.7
2022-10-25T14:35:20.060Z,1001.7
2022-10-25T14:36:36.885Z,1001.7
2022-10-25T14:37:53.912Z,1001.7
2022-10-25T14:39:10.846Z,1001.8
2022-10-25T14:40:27.907Z,1001.7
2022-10-25T14:41:44.900Z,1001.8
2022-10-25T14:43:02.052Z,1001.8
2022-10-25T14:44:20.017Z,1001.7
2022-10-25T14:45:38.790Z,1001.7
2022-10-25T14:46:55.940Z,1001.7
2022-10-25T14:48:12.857Z,1001.7
2022-10-25T14:49:29.860Z,1001.7
2022-10-25T14:50:47.073Z,1001.7
2022-10-25T14:52:03.999Z,1001.7
2022-10-25T14:53:20.906Z,1001.7
2022-10-25T14:54:38.019Z,1001.7
2022-10-25T14:55:54.858Z,1001.7
2022-10-25T14:57:11.918Z,1001.7
2022-10-25T14:58:28.867Z,1001.7
2022-10-25T14:59:45.895Z,1001.7
2022-10-25T15:01:03.057Z,1001.8
2022-10-25T15:02:19.944Z,1001.8
2022-10-25T15:03:36.926Z,1001.8
2022-10-25T15:04:53.933Z,1001.8
2022-10-25T15:06:11.005Z,1001.8
2022-10-25T15:07:28.029Z,1001.9
2022-10-25T15:08:47.894Z,1001.8
2022-10-25T15:10:01.961Z,1001.8
2022-10-25T15:11:18.889Z,1001.9
2022-10-25T15:12:35.901Z,1001.9
2022-10-25T15:13:52.930Z,1001.9
2022-10-25T15:15:10.014Z,1001.9
2022-10-25T15:16:26.935Z,1001.9
2022-10-25T15:17:43.908Z,1001.9
2022-10-25T15:19:00.966Z,1001.9
2022-10-25T15:20:17.906Z,1001.9
2022-10-25T15:21:34.952Z,1001.9
2022-10-25T15:22:52.282Z,1001.9
2022-10-25T15:24:08.938Z,1001.9
2022-10-25T15:25:25.896Z,1002
2022-10-25T15:26:42.956Z,1001.9
2022-10-25T15:28:00.056Z,1002
2022-10-25T15:29:16.911Z,1002
2022-10-25T15:30:34.999Z,1001.9
2022-10-25T15:31:51.936Z,1001.9
2022-10-25T15:33:09.052Z,1001.9
2022-10-25T15:34:25.936Z,1001.9
2022-10-25T15:35:42.934Z,1002
2022-10-25T15:37:00.008Z,1002
2022-10-25T15:38:16.951Z,1002
2022-10-25T15:39:34.006Z,1002.1
2022-10-25T15:40:50.932Z,1002
2022-10-25T15:42:09.387Z,1002
2022-10-25T15:43:25.172Z,1002
2022-10-25T15:44:42.023Z,1002
2022-10-25T15:45:58.983Z,1002
2022-10-25T15:47:16.067Z,1002
2022-10-25T15:48:33.253Z,1002.1
2022-10-25T15:49:50.152Z,1002.1
2022-10-25T15:51:07.270Z,1002.1
2022-10-25T15:52:27.227Z,1002.1
2022-10-25T15:53:43.959Z,1002.2
2022-10-25T15:55:01.158Z,1002.2
2022-10-25T15:56:18.362Z,1002.2
2022-10-25T15:57:35.981Z,1002.2
2022-10-25T15:58:52.961Z,1002.2
2022-10-25T16:00:10.010Z,1002.2
2022-10-25T16:07:04.995Z,1002.3
2022-10-25T16:12:02.030Z,1002.3
2022-10-25T16:13:18.982Z,1002.3
2022-10-25T16:14:35.960Z,1002.2
2022-10-25T16:15:52.988Z,1002.3
2022-10-25T16:17:10.076Z,1002.3
2022-10-25T16:18:27.263Z,1002.3
2022-10-25T16:19:43.997Z,1002.3
2022-10-25T16:21:00.974Z,1002.4
2022-10-25T16:22:18.011Z,1002.4
2022-10-25T16:23:35.007Z,1002.4
2022-10-25T16:24:52.021Z,1002.4
2022-10-25T16:26:08.996Z,1002.5
2022-10-25T16:27:26.053Z,1002.5
2022-10-25T16:28:43.044Z,1002.5
2022-10-25T16:30:00.004Z,1002.5
2022-10-25T16:31:17.026Z,1002.6
2022-10-25T16:32:34.329Z,1002.6
2022-10-25T16:33:51.008Z,1002.6
2022-10-25T16:35:08.062Z,1002.6
2022-10-25T16:36:25.057Z,1002.6
2022-10-25T16:37:42.077Z,1002.6